Rock Springs, Wisconsin
Current Conditions -  °F | °C
As of 6:15 PM on Friday 24 Oct 2014 (Local Time) from KC35 Reporting Station
Overcast Overcast  
Wind Chill: 59°   Ceiling: 2300
Heat Index: 59°   Visibility: 10mi
Dew Point: 51°   Wind: 6mph
Humidity: 75%   Direction: 190°S
Pressure: 29.9"   Gusts: NA
Location:  43.49°N, 89.92°W
Report Text: KC35 242315Z AUTO 19005KT 10SM OVC023 15/11 A2990 RMK AO2 T01490106
Loading
Personal Weather Stations






























Interactive Weather Map
Tropical Storm Tracking
New forecast layout! Learn more

10-Day Weather Forecast

Advertisements
Track Severe Weather on mobile